createdAt,value
2023-01-26T00:00:37.084Z,0
2023-01-26T00:01:17.613Z,0
2023-01-26T00:01:58.123Z,0
2023-01-26T00:02:38.706Z,0
2023-01-26T00:07:54.917Z,0
2023-01-26T00:08:35.414Z,0
2023-01-26T00:09:15.930Z,0
2023-01-26T00:09:57.249Z,0
2023-01-26T00:11:19.212Z,0
2023-01-26T00:11:59.678Z,0
2023-01-26T00:12:40.211Z,0
2023-01-26T00:13:20.722Z,0
2023-01-26T00:14:01.240Z,0
2023-01-26T00:14:41.801Z,0
2023-01-26T00:15:22.326Z,0
2023-01-26T00:16:02.893Z,0
2023-01-26T00:16:43.355Z,0
2023-01-26T00:19:21.771Z,0
2023-01-26T00:20:02.323Z,0
2023-01-26T00:20:42.869Z,0
2023-01-26T00:21:23.897Z,0
2023-01-26T00:24:46.561Z,0
2023-01-26T00:25:27.087Z,0
2023-01-26T00:26:07.634Z,0
2023-01-26T00:26:48.161Z,0
2023-01-26T00:27:28.711Z,0
2023-01-26T00:28:09.183Z,0
2023-01-26T00:28:49.704Z,0
2023-01-26T00:29:30.243Z,0
2023-01-26T00:30:11.011Z,0
2023-01-26T00:30:51.358Z,0
2023-01-26T00:37:36.512Z,0
2023-01-26T00:40:14.934Z,0
2023-01-26T00:40:55.451Z,0
2023-01-26T00:41:36.002Z,0
2023-01-26T00:42:16.513Z,0
2023-01-26T00:46:19.782Z,0
2023-01-26T00:47:00.253Z,0
2023-01-26T00:47:40.852Z,0
2023-01-26T00:48:23.567Z,0
2023-01-26T00:49:01.925Z,0
2023-01-26T00:49:42.441Z,0
2023-01-26T00:50:22.958Z,0
2023-01-26T00:51:03.485Z,0
2023-01-26T00:51:44.027Z,0
2023-01-26T00:52:24.559Z,0
2023-01-26T00:57:21.888Z,0
2023-01-26T00:58:02.485Z,0
2023-01-26T00:58:42.989Z,0
2023-01-26T00:59:24.403Z,0
2023-01-26T01:02:42.164Z,0
2023-01-26T01:03:22.644Z,0
2023-01-26T01:04:03.122Z,0
2023-01-26T01:04:43.704Z,0
2023-01-26T01:09:38.768Z,0
2023-01-26T01:10:19.308Z,0
2023-01-26T01:10:59.929Z,0
2023-01-26T01:11:40.507Z,0
2023-01-26T01:15:43.624Z,0
2023-01-26T01:16:24.206Z,0
2023-01-26T01:17:05.495Z,0
2023-01-26T01:17:46.029Z,0
2023-01-26T01:18:26.534Z,0
2023-01-26T01:19:07.047Z,0
2023-01-26T01:19:47.580Z,0
2023-01-26T01:20:28.091Z,0
2023-01-26T01:26:04.835Z,0
2023-01-26T01:26:45.393Z,0
2023-01-26T01:27:25.953Z,0
2023-01-26T01:28:07.413Z,0
2023-01-26T01:30:20.415Z,0
2023-01-26T01:31:01.144Z,0
2023-01-26T01:31:41.650Z,0
2023-01-26T01:32:22.038Z,0
2023-01-26T01:35:45.419Z,0
2023-01-26T01:36:25.943Z,0
2023-01-26T01:37:06.454Z,0
2023-01-26T01:37:46.958Z,0
2023-01-26T01:38:27.512Z,0
2023-01-26T01:39:07.993Z,0
2023-01-26T01:39:48.513Z,0
2023-01-26T01:40:29.043Z,0
2023-01-26T01:41:09.542Z,0
2023-01-26T01:41:50.057Z,0
2023-01-26T01:45:53.192Z,0
2023-01-26T01:46:33.756Z,0
2023-01-26T01:47:14.240Z,0
2023-01-26T01:49:53.325Z,0
2023-01-26T01:50:34.397Z,0
2023-01-26T01:51:14.952Z,0
2023-01-26T01:51:56.124Z,0
2023-01-26T01:54:10.617Z,0
2023-01-26T01:54:51.158Z,0
2023-01-26T01:55:31.653Z,0
2023-01-26T01:56:12.290Z,0
2023-01-26T02:00:15.432Z,0
2023-01-26T02:00:55.970Z,0
2023-01-26T02:03:34.400Z,0
2023-01-26T02:04:14.938Z,0
2023-01-26T02:04:55.527Z,0
2023-01-26T02:05:36.008Z,0
2023-01-26T02:08:59.416Z,0
2023-01-26T02:09:39.928Z,0
2023-01-26T02:10:20.524Z,0
2023-01-26T02:11:00.956Z,0
2023-01-26T02:11:41.464Z,0
2023-01-26T02:12:22.014Z,0
2023-01-26T02:13:02.544Z,0
2023-01-26T02:13:43.610Z,0
2023-01-26T02:20:00.701Z,0
2023-01-26T02:20:41.267Z,0
2023-01-26T02:21:21.776Z,0
2023-01-26T02:22:02.377Z,0
2023-01-26T02:24:15.652Z,0
2023-01-26T02:24:56.295Z,0
2023-01-26T02:25:36.793Z,0
2023-01-26T02:26:17.366Z,0
2023-01-26T02:28:35.556Z,0
2023-01-26T02:29:16.075Z,0
2023-01-26T02:29:56.594Z,0
2023-01-26T02:30:37.121Z,0
2023-01-26T02:35:20.688Z,0
2023-01-26T02:36:01.132Z,0
2023-01-26T02:36:41.642Z,0
2023-01-26T02:39:20.151Z,0
2023-01-26T02:40:00.682Z,0
2023-01-26T02:40:41.796Z,0
2023-01-26T02:41:22.340Z,0
2023-01-26T02:44:05.387Z,0
2023-01-26T02:44:45.885Z,0
2023-01-26T02:45:26.422Z,0
2023-01-26T02:46:06.972Z,0
2023-01-26T02:46:47.485Z,0
2023-01-26T02:47:28.019Z,0
2023-01-26T02:48:08.536Z,0
2023-01-26T02:48:49.037Z,0
2023-01-26T02:49:29.554Z,0
2023-01-26T02:54:25.242Z,0
2023-01-26T02:55:05.789Z,0
2023-01-26T02:55:46.354Z,0
2023-01-26T02:56:26.885Z,0
2023-01-26T02:58:55.188Z,0
2023-01-26T02:59:35.683Z,0
2023-01-26T03:00:16.195Z,0
2023-01-26T03:00:56.740Z,0
2023-01-26T03:05:40.249Z,0
2023-01-26T03:06:20.820Z,0
2023-01-26T03:07:01.333Z,0
2023-01-26T03:07:41.932Z,0
2023-01-26T03:08:22.430Z,0
2023-01-26T03:09:03.058Z,0
2023-01-26T03:09:43.593Z,0
2023-01-26T03:10:24.169Z,0
2023-01-26T03:11:04.656Z,0
2023-01-26T03:17:50.004Z,0
2023-01-26T03:18:30.574Z,0
2023-01-26T03:19:11.106Z,0
2023-01-26T03:19:51.615Z,0
2023-01-26T03:20:32.106Z,0
2023-01-26T03:21:12.650Z,0
2023-01-26T03:21:53.152Z,0
2023-01-26T03:22:33.665Z,0
2023-01-26T03:23:14.166Z,0
2023-01-26T03:25:52.617Z,0
2023-01-26T03:26:33.131Z,0
2023-01-26T03:27:13.650Z,0
2023-01-26T03:27:54.160Z,0
2023-01-26T03:31:57.368Z,0
2023-01-26T03:32:37.881Z,0
2023-01-26T03:33:18.379Z,0
2023-01-26T03:33:58.928Z,0
2023-01-26T03:34:39.432Z,0
2023-01-26T03:35:19.942Z,0
2023-01-26T03:36:00.463Z,0
2023-01-26T03:36:41.016Z,0
2023-01-26T03:37:21.569Z,0
2023-01-26T03:38:02.072Z,0
2023-01-26T03:44:07.378Z,0
2023-01-26T03:44:47.873Z,0
2023-01-26T03:45:28.378Z,0
2023-01-26T03:46:09.898Z,0
2023-01-26T03:46:50.459Z,0
2023-01-26T03:47:30.947Z,0
2023-01-26T03:48:11.446Z,0
2023-01-26T03:48:51.966Z,0
2023-01-26T03:55:37.216Z,0
2023-01-26T03:56:17.735Z,0
2023-01-26T03:56:58.280Z,0
2023-01-26T03:57:38.838Z,0
2023-01-26T03:58:19.390Z,0
2023-01-26T03:58:59.901Z,0
2023-01-26T03:59:40.436Z,0
2023-01-26T04:00:20.921Z,0
2023-01-26T04:01:01.509Z,0
2023-01-26T04:01:42.046Z,0
2023-01-26T04:06:59.874Z,0
2023-01-26T04:07:40.409Z,0
2023-01-26T04:08:20.956Z,0
2023-01-26T04:09:01.437Z,0
2023-01-26T04:13:04.688Z,0
2023-01-26T04:13:45.204Z,0
2023-01-26T04:14:25.707Z,0
2023-01-26T04:15:06.237Z,0
2023-01-26T04:15:46.760Z,0
2023-01-26T04:16:27.281Z,0
2023-01-26T04:17:07.811Z,0
2023-01-26T04:17:48.331Z,0
2023-01-26T04:18:28.859Z,0
2023-01-26T04:19:09.374Z,0
2023-01-26T04:25:54.643Z,0
2023-01-26T04:26:35.163Z,0
2023-01-26T04:27:15.671Z,0
2023-01-26T04:27:56.214Z,0
2023-01-26T04:28:36.770Z,0
2023-01-26T04:29:17.319Z,0
2023-01-26T04:29:57.837Z,0
2023-01-26T04:30:38.390Z,0
2023-01-26T04:31:18.909Z,0
2023-01-26T04:31:59.419Z,0
2023-01-26T04:35:34.585Z,0
2023-01-26T04:36:15.111Z,0
2023-01-26T04:36:55.634Z,0
2023-01-26T04:37:36.163Z,0
2023-01-26T04:44:15.320Z,0
2023-01-26T04:44:55.828Z,0
2023-01-26T04:45:36.356Z,0
2023-01-26T04:46:16.899Z,0
2023-01-26T04:51:12.907Z,0
2023-01-26T04:51:53.450Z,0
2023-01-26T04:52:34.152Z,0
2023-01-26T04:53:16.078Z,0
2023-01-26T04:55:34.217Z,0
2023-01-26T04:56:15.514Z,0
2023-01-26T04:56:56.023Z,0
2023-01-26T04:57:36.559Z,0
2023-01-26T05:00:59.196Z,0
2023-01-26T05:01:39.687Z,0
2023-01-26T05:02:20.216Z,0
2023-01-26T05:03:00.761Z,0
2023-01-26T05:03:41.309Z,0
2023-01-26T05:04:21.850Z,0
2023-01-26T05:05:02.348Z,0
2023-01-26T05:05:42.858Z,0
2023-01-26T05:06:23.370Z,0
2023-01-26T05:07:03.892Z,0
2023-01-26T05:12:39.577Z,0
2023-01-26T05:13:20.111Z,0
2023-01-26T05:14:00.603Z,0
2023-01-26T05:14:41.113Z,0
2023-01-26T05:17:09.436Z,0
2023-01-26T05:17:50.901Z,0
2023-01-26T05:18:33.289Z,0
2023-01-26T05:19:14.559Z,0
2023-01-26T05:21:27.701Z,0
2023-01-26T05:22:08.198Z,0
2023-01-26T05:22:48.703Z,0
2023-01-26T05:23:29.342Z,0
2023-01-26T05:26:48.947Z,0
2023-01-26T05:27:31.086Z,0
2023-01-26T05:28:12.625Z,0
2023-01-26T05:28:53.064Z,0
2023-01-26T05:31:07.644Z,0
2023-01-26T05:31:48.169Z,0
2023-01-26T05:32:28.654Z,0
2023-01-26T05:33:09.163Z,0
2023-01-26T05:36:32.641Z,0
2023-01-26T05:37:14.923Z,0
2023-01-26T05:37:53.637Z,0
2023-01-26T05:38:34.106Z,0
2023-01-26T05:39:14.671Z,0
2023-01-26T05:39:55.362Z,0
2023-01-26T05:40:35.761Z,0
2023-01-26T05:41:16.255Z,0
2023-01-26T05:41:56.743Z,0
2023-01-26T05:42:37.273Z,0
2023-01-26T05:48:42.583Z,0
2023-01-26T05:49:23.093Z,0
2023-01-26T05:50:03.615Z,0
2023-01-26T05:50:44.129Z,0
2023-01-26T05:53:23.173Z,0
2023-01-26T05:54:03.687Z,0
2023-01-26T05:54:44.230Z,0
2023-01-26T05:55:25.351Z,0
2023-01-26T05:58:07.440Z,0
2023-01-26T05:58:47.974Z,0
2023-01-26T05:59:28.539Z,0
2023-01-26T06:00:09.331Z,0
2023-01-26T06:00:49.592Z,0
2023-01-26T06:01:30.661Z,0
2023-01-26T06:02:11.267Z,0
2023-01-26T06:02:51.774Z,0
2023-01-26T06:08:17.266Z,0
2023-01-26T06:08:57.762Z,0
2023-01-26T06:09:38.287Z,0
2023-01-26T06:10:18.832Z,0
2023-01-26T06:10:59.361Z,0
2023-01-26T06:11:39.851Z,0
2023-01-26T06:12:20.522Z,0
2023-01-26T06:13:01.042Z,0
2023-01-26T06:13:41.589Z,0
2023-01-26T06:14:22.118Z,0
2023-01-26T06:20:27.530Z,0
2023-01-26T06:23:06.067Z,0
2023-01-26T06:23:46.520Z,0
2023-01-26T06:24:27.035Z,0
2023-01-26T06:25:07.591Z,0
2023-01-26T06:28:31.049Z,0
2023-01-26T06:29:11.561Z,0
2023-01-26T06:29:52.099Z,0
2023-01-26T06:30:32.690Z,0
2023-01-26T06:31:13.186Z,0
2023-01-26T06:31:53.634Z,0
2023-01-26T06:32:34.177Z,0
2023-01-26T06:33:14.665Z,0
2023-01-26T06:33:55.198Z,0
2023-01-26T06:36:48.536Z,0
2023-01-26T06:37:29.093Z,0
2023-01-26T06:38:10.346Z,0
2023-01-26T06:38:50.916Z,0
2023-01-26T06:41:10.609Z,0
2023-01-26T06:41:51.116Z,0
2023-01-26T06:42:32.224Z,0
2023-01-26T06:43:12.763Z,0
2023-01-26T06:44:35.462Z,0
2023-01-26T06:45:16.035Z,0
2023-01-26T06:45:56.552Z,0
2023-01-26T06:46:37.982Z,0
2023-01-26T06:47:18.536Z,0
2023-01-26T06:47:59.048Z,0
2023-01-26T06:48:39.543Z,0
2023-01-26T06:49:20.062Z,0
2023-01-26T06:55:25.401Z,0
2023-01-26T06:56:05.931Z,0
2023-01-26T06:56:46.464Z,0
2023-01-26T06:57:26.970Z,0
2023-01-26T06:58:07.504Z,0
2023-01-26T06:58:48.012Z,0
2023-01-26T06:59:28.510Z,0
2023-01-26T07:00:09.259Z,0
2023-01-26T07:00:49.580Z,0
2023-01-26T07:01:30.111Z,0
2023-01-26T07:09:07.549Z,0
2023-01-26T07:09:48.064Z,0
2023-01-26T07:10:28.576Z,0
2023-01-26T07:11:10.819Z,0
2023-01-26T07:12:33.916Z,0
2023-01-26T07:13:14.989Z,0
2023-01-26T07:17:48.729Z,0
2023-01-26T07:18:29.239Z,0
2023-01-26T07:19:09.792Z,0
2023-01-26T07:19:52.784Z,0
2023-01-26T07:22:05.567Z,0
2023-01-26T07:22:46.106Z,5
2023-01-26T07:23:26.656Z,5
2023-01-26T07:24:07.262Z,5
2023-01-26T07:26:37.015Z,5
2023-01-26T07:27:17.539Z,5
2023-01-26T07:27:58.060Z,5
2023-01-26T07:28:40.145Z,5
2023-01-26T07:34:14.426Z,5
2023-01-26T07:34:54.932Z,5
2023-01-26T07:35:35.492Z,5
2023-01-26T07:36:16.043Z,5
2023-01-26T07:38:30.163Z,5
2023-01-26T07:39:10.704Z,5
2023-01-26T07:39:52.826Z,5
2023-01-26T07:40:33.373Z,5
2023-01-26T07:41:14.470Z,5
2023-01-26T07:41:55.673Z,5
2023-01-26T07:44:30.516Z,5
2023-01-26T07:45:12.601Z,5
2023-01-26T07:45:53.114Z,5
2023-01-26T07:46:33.688Z,5
2023-01-26T07:47:55.646Z,5
2023-01-26T07:48:36.173Z,5
2023-01-26T07:50:49.640Z,5
2023-01-26T07:51:30.339Z,5
2023-01-26T07:52:10.962Z,5
2023-01-26T07:52:52.515Z,5
2023-01-26T07:55:05.525Z,5
2023-01-26T07:55:46.034Z,5
2023-01-26T07:56:28.136Z,5
2023-01-26T07:57:08.639Z,5
2023-01-26T07:59:10.160Z,5
2023-01-26T07:59:50.658Z,10
2023-01-26T08:00:31.191Z,10
2023-01-26T08:01:11.669Z,10
2023-01-26T08:01:52.266Z,10
2023-01-26T08:04:21.268Z,10
2023-01-26T08:05:01.776Z,10
2023-01-26T08:05:42.286Z,10
2023-01-26T08:06:22.809Z,10
2023-01-26T08:10:25.907Z,10
2023-01-26T08:11:07.288Z,10
2023-01-26T08:13:30.050Z,10
2023-01-26T08:14:01.427Z,10
2023-01-26T08:14:46.946Z,15
2023-01-26T08:15:22.445Z,15
2023-01-26T08:18:45.655Z,15
2023-01-26T08:19:26.187Z,15
2023-01-26T08:20:06.813Z,15
2023-01-26T08:20:47.361Z,20
2023-01-26T08:21:27.937Z,20
2023-01-26T08:24:01.327Z,20
2023-01-26T08:24:42.526Z,20
2023-01-26T08:25:23.055Z,20
2023-01-26T08:26:04.527Z,20
2023-01-26T08:28:06.070Z,20
2023-01-26T08:28:46.549Z,20
2023-01-26T08:29:27.125Z,20
2023-01-26T08:30:08.236Z,20
2023-01-26T08:30:48.784Z,20
2023-01-26T08:31:29.239Z,20
2023-01-26T08:32:09.811Z,20
2023-01-26T08:32:50.247Z,20
2023-01-26T08:37:05.150Z,25
2023-01-26T08:37:47.193Z,25
2023-01-26T08:38:28.262Z,25
2023-01-26T08:39:08.758Z,25
2023-01-26T08:39:49.809Z,25
2023-01-26T08:40:31.012Z,25
2023-01-26T08:41:11.550Z,25
2023-01-26T08:41:52.034Z,25
2023-01-26T08:42:32.503Z,25
2023-01-26T08:43:13.005Z,25
2023-01-26T08:43:53.482Z,25
2023-01-26T08:44:33.993Z,30
2023-01-26T08:45:14.463Z,30
2023-01-26T08:49:59.958Z,25
2023-01-26T08:50:40.515Z,25
2023-01-26T08:51:21.097Z,25
2023-01-26T08:52:01.630Z,25
2023-01-26T08:52:43.920Z,25
2023-01-26T08:53:24.428Z,25
2023-01-26T09:00:10.003Z,25
2023-01-26T09:00:50.294Z,25
2023-01-26T09:01:30.894Z,25
2023-01-26T09:02:11.492Z,25
2023-01-26T09:02:52.130Z,25
2023-01-26T09:03:34.319Z,25
2023-01-26T09:09:52.734Z,35
2023-01-26T09:10:33.774Z,35
2023-01-26T09:11:14.251Z,35
2023-01-26T09:13:58.120Z,35
2023-01-26T09:14:38.636Z,35
2023-01-26T09:15:20.118Z,35
2023-01-26T09:16:03.431Z,40
2023-01-26T09:18:17.999Z,35
2023-01-26T09:18:58.547Z,35
2023-01-26T09:19:39.112Z,35
2023-01-26T09:20:20.125Z,35
2023-01-26T09:21:42.987Z,35
2023-01-26T09:22:24.156Z,35
2023-01-26T09:23:04.888Z,30
2023-01-26T09:23:45.444Z,30
2023-01-26T09:24:25.994Z,30
2023-01-26T09:25:06.697Z,30
2023-01-26T09:25:47.217Z,30
2023-01-26T09:29:22.132Z,35
2023-01-26T09:30:02.810Z,40
2023-01-26T09:30:44.133Z,40
2023-01-26T09:31:24.727Z,40
2023-01-26T09:33:58.001Z,40
2023-01-26T09:34:38.485Z,40
2023-01-26T09:35:20.004Z,40
2023-01-26T09:36:00.431Z,40
2023-01-26T09:38:43.024Z,40
2023-01-26T09:39:23.563Z,45
2023-01-26T09:40:04.042Z,40
2023-01-26T09:40:44.616Z,40
2023-01-26T09:41:26.706Z,40
2023-01-26T09:47:05.312Z,50
2023-01-26T09:47:48.864Z,50
2023-01-26T09:48:30.867Z,50
2023-01-26T09:49:11.393Z,50
2023-01-26T09:49:56.804Z,45
2023-01-26T09:53:16.033Z,45
2023-01-26T09:53:56.586Z,45
2023-01-26T09:54:37.086Z,45
2023-01-26T09:55:17.960Z,45
2023-01-26T09:57:56.579Z,45
2023-01-26T09:58:37.098Z,45
2023-01-26T09:59:17.608Z,45
2023-01-26T09:59:58.109Z,45
2023-01-26T10:03:21.241Z,45
2023-01-26T10:04:01.770Z,45
2023-01-26T10:04:42.243Z,40
2023-01-26T10:05:22.808Z,40
2023-01-26T10:06:03.308Z,40
2023-01-26T10:06:43.865Z,40
2023-01-26T10:07:24.357Z,40
2023-01-26T10:08:05.028Z,40
2023-01-26T10:08:45.524Z,35
2023-01-26T10:09:26.027Z,35
2023-01-26T10:15:23.960Z,30
2023-01-26T10:16:04.534Z,30
2023-01-26T10:16:45.050Z,30
2023-01-26T10:17:25.636Z,30
2023-01-26T10:19:40.155Z,25
2023-01-26T10:20:20.681Z,25
2023-01-26T10:21:01.187Z,25
2023-01-26T10:21:41.728Z,25
2023-01-26T10:25:04.854Z,40
2023-01-26T10:25:45.440Z,45
2023-01-26T10:26:25.955Z,45
2023-01-26T10:27:06.477Z,45
2023-01-26T10:27:46.987Z,45
2023-01-26T10:28:27.521Z,45
2023-01-26T10:29:08.046Z,45
2023-01-26T10:29:48.567Z,50
2023-01-26T10:30:29.293Z,50
2023-01-26T10:31:09.853Z,50
2023-01-26T10:37:41.436Z,55
2023-01-26T10:38:21.953Z,55
2023-01-26T10:39:02.505Z,55
2023-01-26T10:39:43.017Z,55
2023-01-26T10:45:18.784Z,50
2023-01-26T10:45:59.316Z,50
2023-01-26T10:46:39.920Z,50
2023-01-26T10:47:20.578Z,45
2023-01-26T10:50:03.541Z,45
2023-01-26T10:50:44.101Z,45
2023-01-26T10:51:24.601Z,45
2023-01-26T10:53:42.931Z,45
2023-01-26T10:54:23.457Z,45
2023-01-26T10:55:03.963Z,45
2023-01-26T10:55:44.505Z,45
2023-01-26T10:57:59.003Z,45
2023-01-26T10:58:39.539Z,45
2023-01-26T10:59:20.752Z,45
2023-01-26T11:00:01.254Z,40
2023-01-26T11:03:23.767Z,40
2023-01-26T11:04:04.803Z,40
2023-01-26T11:04:46.072Z,40
2023-01-26T11:05:27.577Z,40
2023-01-26T11:08:02.837Z,35
2023-01-26T11:08:43.351Z,35
2023-01-26T11:09:23.902Z,35
2023-01-26T11:10:04.453Z,35
2023-01-26T11:13:38.587Z,40
2023-01-26T11:14:19.104Z,40
2023-01-26T11:14:59.646Z,40
2023-01-26T11:15:40.220Z,40
2023-01-26T11:17:54.781Z,35
2023-01-26T11:18:35.261Z,35
2023-01-26T11:19:15.759Z,35
2023-01-26T11:19:56.323Z,40
2023-01-26T11:23:59.550Z,40
2023-01-26T11:24:42.444Z,40
2023-01-26T11:25:20.545Z,40
2023-01-26T11:27:58.937Z,40
2023-01-26T11:28:41.267Z,35
2023-01-26T11:29:22.544Z,35
2023-01-26T11:32:05.672Z,40
2023-01-26T11:32:47.420Z,40
2023-01-26T11:33:27.972Z,40
2023-01-26T11:35:56.808Z,40
2023-01-26T11:36:37.379Z,40
2023-01-26T11:37:17.952Z,40
2023-01-26T11:37:58.480Z,40
2023-01-26T11:40:53.678Z,50
2023-01-26T11:41:35.684Z,55
2023-01-26T11:42:16.200Z,55
2023-01-26T11:42:56.747Z,55
2023-01-26T11:45:10.115Z,65
2023-01-26T11:45:50.368Z,65
2023-01-26T11:46:30.879Z,60
2023-01-26T11:47:11.408Z,60
2023-01-26T11:50:34.947Z,60
2023-01-26T11:51:15.382Z,60
2023-01-26T11:51:55.897Z,55
2023-01-26T11:52:36.441Z,65
2023-01-26T11:53:17.669Z,65
2023-01-26T11:53:58.162Z,70
2023-01-26T11:54:38.712Z,70
2023-01-26T11:55:19.249Z,65
2023-01-26T11:59:35.982Z,70
2023-01-26T12:00:27.974Z,70
2023-01-26T12:00:54.916Z,70
2023-01-26T12:01:35.525Z,75
2023-01-26T12:05:38.778Z,85
2023-01-26T12:06:19.287Z,85
2023-01-26T12:06:59.800Z,85
2023-01-26T12:07:40.328Z,90
2023-01-26T12:08:20.915Z,90
2023-01-26T12:09:01.439Z,90
2023-01-26T12:09:41.943Z,90
2023-01-26T12:10:22.446Z,85
2023-01-26T12:11:03.955Z,80
2023-01-26T12:18:50.974Z,90
2023-01-26T12:19:21.680Z,90
2023-01-26T12:20:02.772Z,95
2023-01-26T12:20:43.235Z,95
2023-01-26T12:25:05.163Z,100
2023-01-26T12:25:20.878Z,100
2023-01-26T12:26:01.298Z,100
2023-01-26T12:26:41.794Z,100
2023-01-26T12:28:45.571Z,105
2023-01-26T12:29:26.066Z,105
2023-01-26T12:30:06.598Z,105
2023-01-26T12:30:47.218Z,105
2023-01-26T12:31:27.816Z,105
2023-01-26T12:32:08.093Z,105
2023-01-26T12:32:49.407Z,110
2023-01-26T12:38:54.826Z,105
2023-01-26T12:39:36.582Z,105
2023-01-26T12:40:15.893Z,105
2023-01-26T12:40:56.439Z,105
2023-01-26T12:41:37.004Z,105
2023-01-26T12:42:17.547Z,105
2023-01-26T12:42:58.033Z,110
2023-01-26T12:43:38.543Z,110
2023-01-26T12:44:19.095Z,110
2023-01-26T12:44:59.642Z,115
2023-01-26T12:51:43.007Z,120
2023-01-26T12:52:23.608Z,120
2023-01-26T12:53:05.121Z,120
2023-01-26T12:53:45.711Z,120
2023-01-26T12:55:48.086Z,115
2023-01-26T12:56:28.587Z,115
2023-01-26T12:57:09.647Z,115
2023-01-26T12:57:51.078Z,115
2023-01-26T12:58:31.586Z,115
2023-01-26T12:59:14.799Z,115
2023-01-26T13:04:49.272Z,115
2023-01-26T13:05:31.179Z,115
2023-01-26T13:06:11.632Z,115
2023-01-26T13:06:52.459Z,120
2023-01-26T13:07:33.573Z,120
2023-01-26T13:08:14.926Z,115
2023-01-26T13:08:55.466Z,115
2023-01-26T13:09:36.723Z,110
2023-01-26T13:10:17.274Z,110
2023-01-26T13:10:57.780Z,110
2023-01-26T13:13:36.645Z,105
2023-01-26T13:14:20.644Z,100
2023-01-26T13:15:03.499Z,100
2023-01-26T13:15:47.277Z,100
2023-01-26T13:16:35.140Z,95
2023-01-26T13:17:22.148Z,100
2023-01-26T13:18:11.177Z,100
2023-01-26T13:18:57.139Z,100
2023-01-26T13:19:43.159Z,100
2023-01-26T13:20:28.554Z,105
2023-01-26T13:21:13.666Z,105
2023-01-26T13:22:43.338Z,105
2023-01-26T13:23:31.150Z,105
2023-01-26T13:24:59.335Z,105
2023-01-26T13:25:43.337Z,105
2023-01-26T13:27:53.661Z,105
2023-01-26T13:29:19.736Z,105
2023-01-26T13:30:07.697Z,100
2023-01-26T13:31:34.416Z,95
2023-01-26T13:32:58.921Z,95
2023-01-26T13:33:41.332Z,95
2023-01-26T13:35:52.127Z,90
2023-01-26T13:36:32.774Z,95
2023-01-26T13:38:19.176Z,100
2023-01-26T13:39:14.219Z,100
2023-01-26T13:39:59.664Z,100
2023-01-26T13:40:56.824Z,100
2023-01-26T13:41:40.744Z,100
2023-01-26T13:42:36.774Z,95
2023-01-26T13:43:26.565Z,90
2023-01-26T13:44:11.253Z,90
2023-01-26T13:44:55.667Z,85
2023-01-26T13:45:47.854Z,85
2023-01-26T13:46:35.688Z,85
2023-01-26T13:47:19.963Z,80
2023-01-26T13:48:00.116Z,80
2023-01-26T13:48:42.244Z,80
2023-01-26T13:50:11.068Z,85
2023-01-26T13:50:58.632Z,85
2023-01-26T13:51:41.124Z,80
2023-01-26T13:52:29.276Z,80
2023-01-26T13:54:02.612Z,80
2023-01-26T13:55:30.200Z,80
2023-01-26T13:56:58.932Z,70
2023-01-26T13:57:48.649Z,65
2023-01-26T13:58:32.655Z,65
2023-01-26T13:59:18.656Z,65
2023-01-26T14:00:05.147Z,60
2023-01-26T14:01:31.995Z,55
2023-01-26T14:03:40.656Z,50
2023-01-26T14:04:22.907Z,45
2023-01-26T14:05:49.628Z,45
2023-01-26T14:06:32.134Z,50
2023-01-26T14:07:12.781Z,50
2023-01-26T14:07:53.357Z,55
2023-01-26T14:10:40.306Z,60
2023-01-26T14:11:29.144Z,60
2023-01-26T14:12:09.688Z,65
2023-01-26T14:12:52.087Z,65
2023-01-26T14:13:32.702Z,65
2023-01-26T14:14:18.658Z,65
2023-01-26T14:14:59.160Z,65
2023-01-26T14:15:45.165Z,65
2023-01-26T14:17:09.215Z,60
2023-01-26T14:17:51.602Z,60
2023-01-26T14:18:33.177Z,55
2023-01-26T14:20:41.774Z,45
2023-01-26T14:22:10.162Z,40
2023-01-26T14:22:52.679Z,40
2023-01-26T14:24:24.347Z,45
2023-01-26T14:25:48.459Z,50
2023-01-26T14:26:29.021Z,50
2023-01-26T14:28:00.743Z,50
2023-01-26T14:28:43.139Z,50
2023-01-26T14:30:09.867Z,50
2023-01-26T14:30:52.130Z,50
2023-01-26T14:33:01.816Z,50
2023-01-26T14:33:42.372Z,50
2023-01-26T14:34:22.972Z,50
2023-01-26T14:35:50.397Z,50
2023-01-26T14:36:30.915Z,50
2023-01-26T14:37:11.459Z,50
2023-01-26T14:37:53.071Z,50
2023-01-26T14:39:21.034Z,50
2023-01-26T14:40:49.145Z,50
2023-01-26T14:42:23.241Z,50
2023-01-26T14:43:56.040Z,50
2023-01-26T14:46:02.008Z,50
2023-01-26T14:48:51.142Z,50
2023-01-26T14:49:33.650Z,50
2023-01-26T14:51:00.185Z,50
2023-01-26T14:51:42.157Z,50
2023-01-26T14:53:49.663Z,55
2023-01-26T14:55:19.720Z,50
2023-01-26T14:56:02.185Z,45
2023-01-26T14:56:49.443Z,45
2023-01-26T14:57:32.947Z,40
2023-01-26T14:58:19.841Z,40
2023-01-26T14:59:49.288Z,40
2023-01-26T15:00:33.203Z,40
2023-01-26T15:01:59.802Z,40
2023-01-26T15:02:42.719Z,40
2023-01-26T15:03:23.203Z,40
2023-01-26T15:06:20.906Z,40
2023-01-26T15:07:01.407Z,40
2023-01-26T15:07:41.946Z,40
2023-01-26T15:08:22.461Z,40
2023-01-26T15:11:06.364Z,40
2023-01-26T15:11:46.879Z,40
2023-01-26T15:12:27.404Z,40
2023-01-26T15:13:08.856Z,40
2023-01-26T15:16:34.492Z,35
2023-01-26T15:17:15.481Z,35
2023-01-26T15:17:56.003Z,35
2023-01-26T15:18:36.560Z,35
2023-01-26T15:19:17.068Z,35
2023-01-26T15:19:57.602Z,35
2023-01-26T15:20:38.065Z,35
2023-01-26T15:21:18.608Z,35
2023-01-26T15:24:47.025Z,30
2023-01-26T15:25:27.512Z,25
2023-01-26T15:26:08.703Z,25
2023-01-26T15:26:49.220Z,25
2023-01-26T15:30:55.648Z,15
2023-01-26T15:31:36.118Z,15
2023-01-26T15:32:16.587Z,15
2023-01-26T15:32:57.085Z,15
2023-01-26T15:33:37.600Z,15
2023-01-26T15:34:18.125Z,15
2023-01-26T15:34:58.669Z,15
2023-01-26T15:35:39.134Z,15
2023-01-26T15:39:55.152Z,10
2023-01-26T15:40:35.671Z,10
2023-01-26T15:41:16.193Z,10
2023-01-26T15:41:56.776Z,10
2023-01-26T15:44:40.210Z,10
2023-01-26T15:45:20.720Z,10
2023-01-26T15:46:01.263Z,10
2023-01-26T15:46:41.821Z,10
2023-01-26T15:47:22.885Z,10
2023-01-26T15:48:03.389Z,10
2023-01-26T15:48:43.897Z,5
2023-01-26T15:49:24.417Z,5
2023-01-26T15:56:09.912Z,5
2023-01-26T15:56:50.433Z,5
2023-01-26T15:57:31.729Z,5
2023-01-26T15:58:11.496Z,5
2023-01-26T15:58:51.998Z,5
2023-01-26T15:59:32.532Z,5
2023-01-26T16:00:13.033Z,5
2023-01-26T16:00:53.603Z,0
2023-01-26T16:01:34.040Z,0
2023-01-26T16:02:15.294Z,0
2023-01-26T16:08:20.045Z,0
2023-01-26T16:09:00.555Z,0
2023-01-26T16:11:39.280Z,0
2023-01-26T16:12:31.047Z,0
2023-01-26T16:13:00.407Z,0
2023-01-26T16:13:42.980Z,0
2023-01-26T16:15:56.470Z,0
2023-01-26T16:16:37.051Z,0
2023-01-26T16:17:17.551Z,0
2023-01-26T16:17:58.984Z,0
2023-01-26T16:21:21.559Z,0
2023-01-26T16:22:04.677Z,0
2023-01-26T16:22:44.948Z,0
2023-01-26T16:23:25.468Z,0
2023-01-26T16:24:06.069Z,0
2023-01-26T16:29:31.116Z,0
2023-01-26T16:30:11.679Z,0
2023-01-26T16:32:50.248Z,0
2023-01-26T16:33:30.770Z,0
2023-01-26T16:34:11.273Z,0
2023-01-26T16:34:51.791Z,0
2023-01-26T16:40:28.054Z,0
2023-01-26T16:41:10.146Z,0
2023-01-26T16:41:50.793Z,0
2023-01-26T16:42:32.252Z,0
2023-01-26T16:45:00.470Z,0
2023-01-26T16:45:41.004Z,0
2023-01-26T16:46:21.498Z,0
2023-01-26T16:47:02.006Z,0
2023-01-26T16:51:05.081Z,0
2023-01-26T16:51:45.599Z,0
2023-01-26T16:52:26.121Z,0
2023-01-26T16:53:06.618Z,0
2023-01-26T16:53:47.145Z,0
2023-01-26T16:54:27.649Z,0
2023-01-26T16:55:08.168Z,0
2023-01-26T16:55:48.691Z,0
2023-01-26T16:56:29.236Z,0
2023-01-26T17:01:55.269Z,0
2023-01-26T17:02:35.764Z,0
2023-01-26T17:03:16.299Z,0
2023-01-26T17:03:56.811Z,0
2023-01-26T17:04:37.312Z,0
2023-01-26T17:07:15.770Z,0
2023-01-26T17:07:56.320Z,0
2023-01-26T17:08:36.828Z,0
2023-01-26T17:09:17.352Z,0
2023-01-26T17:13:20.517Z,0
2023-01-26T17:14:01.020Z,0
2023-01-26T17:16:39.548Z,0
2023-01-26T17:17:20.921Z,0
2023-01-26T17:18:01.466Z,0
2023-01-26T17:18:42.017Z,0
2023-01-26T17:22:16.079Z,0
2023-01-26T17:22:56.592Z,0
2023-01-26T17:23:37.116Z,0
2023-01-26T17:24:18.859Z,0
2023-01-26T17:25:40.795Z,0
2023-01-26T17:26:21.327Z,0
2023-01-26T17:27:02.705Z,0
2023-01-26T17:27:44.002Z,0
2023-01-26T17:28:24.541Z,0
2023-01-26T17:29:05.109Z,0
2023-01-26T17:29:45.615Z,0
2023-01-26T17:36:30.905Z,0
2023-01-26T17:37:11.423Z,0
2023-01-26T17:37:51.979Z,0
2023-01-26T17:38:32.508Z,0
2023-01-26T17:39:13.027Z,0
2023-01-26T17:39:53.550Z,0
2023-01-26T17:40:34.071Z,0
2023-01-26T17:41:14.574Z,0
2023-01-26T17:41:55.098Z,0
2023-01-26T17:42:35.692Z,0
2023-01-26T17:48:41.108Z,0
2023-01-26T17:49:21.622Z,0
2023-01-26T17:50:02.112Z,0
2023-01-26T17:50:42.633Z,0
2023-01-26T17:51:23.217Z,0
2023-01-26T17:52:03.697Z,0
2023-01-26T17:52:44.190Z,0
2023-01-26T17:55:22.677Z,0
2023-01-26T17:56:03.172Z,0
2023-01-26T17:56:43.702Z,0